sensor_id;sensor_type;location;lat;lon;timestamp;P1;durP1;ratioP1;P2;durP2;ratioP2
74624;SDS011;63131;52.298;8.056;2022-10-16T00:02:03;8.17;;;2.47;;
74624;SDS011;63131;52.298;8.056;2022-10-16T00:04:28;7.57;;;2.70;;
74624;SDS011;63131;52.298;8.056;2022-10-16T00:09:18;8.15;;;2.95;;
74624;SDS011;63131;52.298;8.056;2022-10-16T00:11:44;8.57;;;2.70;;
74624;SDS011;63131;52.298;8.056;2022-10-16T00:14:10;8.13;;;2.77;;
74624;SDS011;63131;52.298;8.056;2022-10-16T00:16:36;9.05;;;3.15;;
74624;SDS011;63131;52.298;8.056;2022-10-16T00:21:28;9.40;;;3.30;;
74624;SDS011;63131;52.298;8.056;2022-10-16T00:23:54;9.13;;;2.95;;
74624;SDS011;63131;52.298;8.056;2022-10-16T00:26:20;9.52;;;3.03;;
74624;SDS011;63131;52.298;8.056;2022-10-16T00:31:11;9.05;;;3.33;;
74624;SDS011;63131;52.298;8.056;2022-10-16T00:36:02;8.27;;;2.95;;
74624;SDS011;63131;52.298;8.056;2022-10-16T00:38:27;8.48;;;3.25;;
74624;SDS011;63131;52.298;8.056;2022-10-16T00:40:53;8.90;;;3.00;;
74624;SDS011;63131;52.298;8.056;2022-10-16T00:46:03;8.10;;;3.35;;
74624;SDS011;63131;52.298;8.056;2022-10-16T00:48:29;11.77;;;4.28;;
74624;SDS011;63131;52.298;8.056;2022-10-16T00:53:20;9.27;;;3.67;;
74624;SDS011;63131;52.298;8.056;2022-10-16T00:58:11;9.33;;;3.90;;
74624;SDS011;63131;52.298;8.056;2022-10-16T01:00:36;10.65;;;3.83;;
74624;SDS011;63131;52.298;8.056;2022-10-16T01:03:02;12.55;;;4.65;;
74624;SDS011;63131;52.298;8.056;2022-10-16T01:08:09;11.50;;;4.55;;
74624;SDS011;63131;52.298;8.056;2022-10-16T01:10:40;9.13;;;4.32;;
74624;SDS011;63131;52.298;8.056;2022-10-16T01:13:07;11.88;;;4.45;;
74624;SDS011;63131;52.298;8.056;2022-10-16T01:20:31;10.35;;;4.53;;
74624;SDS011;63131;52.298;8.056;2022-10-16T01:30:29;9.88;;;3.97;;
74624;SDS011;63131;52.298;8.056;2022-10-16T01:32:57;11.40;;;5.03;;
74624;SDS011;63131;52.298;8.056;2022-10-16T01:35:28;10.00;;;4.13;;
74624;SDS011;63131;52.298;8.056;2022-10-16T01:37:57;10.65;;;4.75;;
74624;SDS011;63131;52.298;8.056;2022-10-16T01:40:25;12.40;;;4.50;;
74624;SDS011;63131;52.298;8.056;2022-10-16T01:42:52;9.40;;;3.95;;
74624;SDS011;63131;52.298;8.056;2022-10-16T01:45:18;10.25;;;4.63;;
74624;SDS011;63131;52.298;8.056;2022-10-16T01:47:44;11.82;;;4.72;;
74624;SDS011;63131;52.298;8.056;2022-10-16T02:02:16;12.10;;;4.32;;
74624;SDS011;63131;52.298;8.056;2022-10-16T02:04:46;12.35;;;4.53;;
74624;SDS011;63131;52.298;8.056;2022-10-16T02:07:12;11.38;;;5.57;;
74624;SDS011;63131;52.298;8.056;2022-10-16T02:12:08;13.55;;;5.00;;
74624;SDS011;63131;52.298;8.056;2022-10-16T02:14:34;10.85;;;4.85;;
74624;SDS011;63131;52.298;8.056;2022-10-16T02:17:09;11.63;;;5.28;;
74624;SDS011;63131;52.298;8.056;2022-10-16T02:19:34;11.32;;;4.80;;
74624;SDS011;63131;52.298;8.056;2022-10-16T02:24:32;11.05;;;4.43;;
74624;SDS011;63131;52.298;8.056;2022-10-16T02:27:01;12.02;;;5.18;;
74624;SDS011;63131;52.298;8.056;2022-10-16T02:29:28;12.88;;;5.05;;
74624;SDS011;63131;52.298;8.056;2022-10-16T02:34:18;11.23;;;4.97;;
74624;SDS011;63131;52.298;8.056;2022-10-16T02:36:46;9.40;;;4.53;;
74624;SDS011;63131;52.298;8.056;2022-10-16T02:39:13;11.95;;;5.40;;
74624;SDS011;63131;52.298;8.056;2022-10-16T02:41:39;12.85;;;5.10;;
74624;SDS011;63131;52.298;8.056;2022-10-16T02:44:04;10.20;;;5.00;;
74624;SDS011;63131;52.298;8.056;2022-10-16T02:46:29;11.20;;;5.37;;
74624;SDS011;63131;52.298;8.056;2022-10-16T02:48:57;11.52;;;5.38;;
74624;SDS011;63131;52.298;8.056;2022-10-16T02:51:23;11.95;;;4.88;;
74624;SDS011;63131;52.298;8.056;2022-10-16T02:53:48;10.93;;;5.03;;
74624;SDS011;63131;52.298;8.056;2022-10-16T02:56:13;11.03;;;5.10;;
74624;SDS011;63131;52.298;8.056;2022-10-16T02:58:38;12.10;;;5.17;;
74624;SDS011;63131;52.298;8.056;2022-10-16T03:01:03;11.23;;;5.43;;
74624;SDS011;63131;52.298;8.056;2022-10-16T03:03:29;11.00;;;5.00;;
74624;SDS011;63131;52.298;8.056;2022-10-16T03:05:54;11.20;;;4.90;;
74624;SDS011;63131;52.298;8.056;2022-10-16T03:08:19;15.33;;;5.87;;
74624;SDS011;63131;52.298;8.056;2022-10-16T03:10:48;11.43;;;4.35;;
74624;SDS011;63131;52.298;8.056;2022-10-16T03:13:13;10.33;;;5.17;;
74624;SDS011;63131;52.298;8.056;2022-10-16T03:15:38;11.10;;;4.57;;
74624;SDS011;63131;52.298;8.056;2022-10-16T03:20:29;11.05;;;4.22;;
74624;SDS011;63131;52.298;8.056;2022-10-16T03:22:54;10.70;;;4.47;;
74624;SDS011;63131;52.298;8.056;2022-10-16T03:25:19;11.97;;;4.60;;
74624;SDS011;63131;52.298;8.056;2022-10-16T03:27:44;9.43;;;4.23;;
74624;SDS011;63131;52.298;8.056;2022-10-16T03:30:09;9.47;;;4.40;;
74624;SDS011;63131;52.298;8.056;2022-10-16T03:32:35;9.57;;;4.30;;
74624;SDS011;63131;52.298;8.056;2022-10-16T03:35:00;8.70;;;4.03;;
74624;SDS011;63131;52.298;8.056;2022-10-16T03:37:25;10.90;;;5.47;;
74624;SDS011;63131;52.298;8.056;2022-10-16T03:39:50;10.37;;;4.60;;
74624;SDS011;63131;52.298;8.056;2022-10-16T03:44:40;11.30;;;4.32;;
74624;SDS011;63131;52.298;8.056;2022-10-16T03:47:06;9.77;;;3.90;;
74624;SDS011;63131;52.298;8.056;2022-10-16T03:49:31;9.53;;;4.40;;
74624;SDS011;63131;52.298;8.056;2022-10-16T03:51:56;10.63;;;4.20;;
74624;SDS011;63131;52.298;8.056;2022-10-16T03:54:21;10.23;;;4.60;;
74624;SDS011;63131;52.298;8.056;2022-10-16T03:56:47;9.82;;;4.60;;
74624;SDS011;63131;52.298;8.056;2022-10-16T03:59:12;10.17;;;4.43;;
74624;SDS011;63131;52.298;8.056;2022-10-16T04:01:37;9.77;;;3.70;;
74624;SDS011;63131;52.298;8.056;2022-10-16T04:04:02;10.53;;;3.87;;
74624;SDS011;63131;52.298;8.056;2022-10-16T04:06:27;10.60;;;4.00;;
74624;SDS011;63131;52.298;8.056;2022-10-16T04:11:18;8.57;;;3.53;;
74624;SDS011;63131;52.298;8.056;2022-10-16T04:13:43;9.10;;;3.77;;
74624;SDS011;63131;52.298;8.056;2022-10-16T04:18:33;10.43;;;3.70;;
74624;SDS011;63131;52.298;8.056;2022-10-16T04:21:03;8.32;;;3.58;;
74624;SDS011;63131;52.298;8.056;2022-10-16T04:23:29;9.00;;;3.05;;
74624;SDS011;63131;52.298;8.056;2022-10-16T04:25:54;9.13;;;4.03;;
74624;SDS011;63131;52.298;8.056;2022-10-16T04:30:44;6.90;;;2.97;;
74624;SDS011;63131;52.298;8.056;2022-10-16T04:33:09;8.67;;;3.27;;
74624;SDS011;63131;52.298;8.056;2022-10-16T04:35:35;10.20;;;3.70;;
74624;SDS011;63131;52.298;8.056;2022-10-16T04:38:00;8.67;;;2.93;;
74624;SDS011;63131;52.298;8.056;2022-10-16T04:42:50;7.68;;;3.05;;
74624;SDS011;63131;52.298;8.056;2022-10-16T04:45:15;7.67;;;2.90;;
74624;SDS011;63131;52.298;8.056;2022-10-16T04:50:06;7.22;;;2.90;;
74624;SDS011;63131;52.298;8.056;2022-10-16T04:52:31;8.43;;;2.75;;
74624;SDS011;63131;52.298;8.056;2022-10-16T04:57:25;9.88;;;2.70;;
74624;SDS011;63131;52.298;8.056;2022-10-16T04:59:51;8.50;;;2.50;;
74624;SDS011;63131;52.298;8.056;2022-10-16T05:04:42;8.90;;;3.20;;
74624;SDS011;63131;52.298;8.056;2022-10-16T05:07:07;8.63;;;2.93;;
74624;SDS011;63131;52.298;8.056;2022-10-16T05:09:32;7.20;;;2.90;;
74624;SDS011;63131;52.298;8.056;2022-10-16T05:11:57;6.60;;;2.50;;
74624;SDS011;63131;52.298;8.056;2022-10-16T05:14:22;7.00;;;2.60;;
74624;SDS011;63131;52.298;8.056;2022-10-16T05:19:14;7.72;;;3.00;;
74624;SDS011;63131;52.298;8.056;2022-10-16T05:24:04;6.80;;;2.50;;
74624;SDS011;63131;52.298;8.056;2022-10-16T05:28:54;7.93;;;2.70;;
74624;SDS011;63131;52.298;8.056;2022-10-16T05:31:20;6.57;;;2.30;;
74624;SDS011;63131;52.298;8.056;2022-10-16T05:36:10;7.90;;;2.55;;
74624;SDS011;63131;52.298;8.056;2022-10-16T05:41:00;8.30;;;2.80;;
74624;SDS011;63131;52.298;8.056;2022-10-16T05:43:29;8.68;;;2.65;;
74624;SDS011;63131;52.298;8.056;2022-10-16T05:45:55;7.97;;;2.75;;
74624;SDS011;63131;52.298;8.056;2022-10-16T05:48:20;7.38;;;2.60;;
74624;SDS011;63131;52.298;8.056;2022-10-16T05:50:46;7.70;;;2.77;;
74624;SDS011;63131;52.298;8.056;2022-10-16T05:53:11;6.43;;;2.10;;
74624;SDS011;63131;52.298;8.056;2022-10-16T05:55:36;6.20;;;2.10;;
74624;SDS011;63131;52.298;8.056;2022-10-16T05:58:01;6.40;;;2.00;;
74624;SDS011;63131;52.298;8.056;2022-10-16T06:00:26;6.70;;;2.30;;
74624;SDS011;63131;52.298;8.056;2022-10-16T06:02:51;6.87;;;2.33;;
74624;SDS011;63131;52.298;8.056;2022-10-16T06:07:42;6.18;;;2.38;;
74624;SDS011;63131;52.298;8.056;2022-10-16T06:12:32;7.80;;;2.42;;
74624;SDS011;63131;52.298;8.056;2022-10-16T06:17:22;7.00;;;2.22;;
74624;SDS011;63131;52.298;8.056;2022-10-16T06:22:12;6.50;;;2.10;;
74624;SDS011;63131;52.298;8.056;2022-10-16T06:24:38;6.30;;;1.88;;
74624;SDS011;63131;52.298;8.056;2022-10-16T06:27:03;7.77;;;2.40;;
74624;SDS011;63131;52.298;8.056;2022-10-16T06:29:29;7.68;;;2.35;;
74624;SDS011;63131;52.298;8.056;2022-10-16T06:34:19;5.68;;;2.00;;
74624;SDS011;63131;52.298;8.056;2022-10-16T06:39:09;7.05;;;2.15;;
74624;SDS011;63131;52.298;8.056;2022-10-16T06:41:34;6.77;;;2.13;;
74624;SDS011;63131;52.298;8.056;2022-10-16T06:44:00;6.70;;;2.00;;
74624;SDS011;63131;52.298;8.056;2022-10-16T06:46:25;6.00;;;2.10;;
74624;SDS011;63131;52.298;8.056;2022-10-16T06:48:51;7.68;;;2.92;;
74624;SDS011;63131;52.298;8.056;2022-10-16T06:51:17;7.17;;;2.00;;
74624;SDS011;63131;52.298;8.056;2022-10-16T06:53:46;5.88;;;1.80;;
74624;SDS011;63131;52.298;8.056;2022-10-16T06:56:15;8.15;;;2.42;;
74624;SDS011;63131;52.298;8.056;2022-10-16T06:58:40;4.88;;;1.75;;
74624;SDS011;63131;52.298;8.056;2022-10-16T07:03:31;7.68;;;2.22;;
74624;SDS011;63131;52.298;8.056;2022-10-16T07:05:56;6.93;;;2.50;;
74624;SDS011;63131;52.298;8.056;2022-10-16T07:08:22;5.63;;;1.93;;
74624;SDS011;63131;52.298;8.056;2022-10-16T07:13:12;6.22;;;1.80;;
74624;SDS011;63131;52.298;8.056;2022-10-16T07:15:38;7.38;;;2.10;;
74624;SDS011;63131;52.298;8.056;2022-10-16T07:20:28;5.93;;;2.03;;
74624;SDS011;63131;52.298;8.056;2022-10-16T07:25:19;6.70;;;1.90;;
74624;SDS011;63131;52.298;8.056;2022-10-16T07:30:09;5.15;;;1.83;;
74624;SDS011;63131;52.298;8.056;2022-10-16T07:34:59;5.93;;;1.77;;
74624;SDS011;63131;52.298;8.056;2022-10-16T07:39:50;9.00;;;1.90;;
74624;SDS011;63131;52.298;8.056;2022-10-16T07:44:40;5.78;;;2.00;;
74624;SDS011;63131;52.298;8.056;2022-10-16T07:49:30;6.70;;;2.22;;
74624;SDS011;63131;52.298;8.056;2022-10-16T07:54:21;7.22;;;2.15;;
74624;SDS011;63131;52.298;8.056;2022-10-16T07:59:11;8.27;;;2.33;;
74624;SDS011;63131;52.298;8.056;2022-10-16T08:04:01;7.53;;;2.40;;
74624;SDS011;63131;52.298;8.056;2022-10-16T08:08:52;6.82;;;2.00;;
74624;SDS011;63131;52.298;8.056;2022-10-16T08:13:42;8.67;;;2.53;;
74624;SDS011;63131;52.298;8.056;2022-10-16T08:18:37;5.13;;;1.92;;
74624;SDS011;63131;52.298;8.056;2022-10-16T08:21:03;9.52;;;2.50;;
74624;SDS011;63131;52.298;8.056;2022-10-16T08:23:29;6.07;;;2.28;;
74624;SDS011;63131;52.298;8.056;2022-10-16T08:28:19;7.75;;;2.00;;
74624;SDS011;63131;52.298;8.056;2022-10-16T08:33:10;6.38;;;2.30;;
74624;SDS011;63131;52.298;8.056;2022-10-16T08:38:02;7.65;;;2.35;;
74624;SDS011;63131;52.298;8.056;2022-10-16T08:40:28;7.13;;;2.20;;
74624;SDS011;63131;52.298;8.056;2022-10-16T08:50:30;7.07;;;2.25;;
74624;SDS011;63131;52.298;8.056;2022-10-16T08:52:59;6.75;;;2.00;;
74624;SDS011;63131;52.298;8.056;2022-10-16T08:55:37;8.85;;;2.50;;
74624;SDS011;63131;52.298;8.056;2022-10-16T08:58:07;6.43;;;2.00;;
74624;SDS011;63131;52.298;8.056;2022-10-16T09:00:34;6.00;;;2.03;;
74624;SDS011;63131;52.298;8.056;2022-10-16T09:05:49;5.80;;;2.17;;
74624;SDS011;63131;52.298;8.056;2022-10-16T09:13:03;5.38;;;1.50;;
74624;SDS011;63131;52.298;8.056;2022-10-16T09:15:35;6.22;;;1.73;;
74624;SDS011;63131;52.298;8.056;2022-10-16T09:20:42;6.88;;;1.80;;
74624;SDS011;63131;52.298;8.056;2022-10-16T09:25:38;4.65;;;1.30;;
74624;SDS011;63131;52.298;8.056;2022-10-16T09:28:04;5.68;;;1.70;;
74624;SDS011;63131;52.298;8.056;2022-10-16T09:30:29;5.30;;;1.60;;
74624;SDS011;63131;52.298;8.056;2022-10-16T09:35:27;5.15;;;1.50;;
74624;SDS011;63131;52.298;8.056;2022-10-16T09:37:56;4.25;;;1.58;;
74624;SDS011;63131;52.298;8.056;2022-10-16T09:45:33;4.00;;;1.48;;
74624;SDS011;63131;52.298;8.056;2022-10-16T09:48:00;4.37;;;1.40;;
74624;SDS011;63131;52.298;8.056;2022-10-16T09:50:26;7.22;;;1.77;;
74624;SDS011;63131;52.298;8.056;2022-10-16T09:53:05;7.03;;;1.55;;
74624;SDS011;63131;52.298;8.056;2022-10-16T09:55:30;5.18;;;1.80;;
74624;SDS011;63131;52.298;8.056;2022-10-16T09:57:57;5.27;;;1.60;;
74624;SDS011;63131;52.298;8.056;2022-10-16T10:00:23;5.53;;;1.65;;
74624;SDS011;63131;52.298;8.056;2022-10-16T10:02:48;7.13;;;1.60;;
74624;SDS011;63131;52.298;8.056;2022-10-16T10:07:39;5.53;;;1.23;;
74624;SDS011;63131;52.298;8.056;2022-10-16T10:10:19;6.90;;;1.38;;
74624;SDS011;63131;52.298;8.056;2022-10-16T10:12:45;5.80;;;1.33;;
74624;SDS011;63131;52.298;8.056;2022-10-16T10:15:11;5.87;;;1.67;;
74624;SDS011;63131;52.298;8.056;2022-10-16T10:17:45;4.65;;;1.40;;
74624;SDS011;63131;52.298;8.056;2022-10-16T10:25:31;6.63;;;1.60;;
74624;SDS011;63131;52.298;8.056;2022-10-16T10:28:03;6.63;;;1.40;;
74624;SDS011;63131;52.298;8.056;2022-10-16T10:30:32;5.30;;;1.42;;
74624;SDS011;63131;52.298;8.056;2022-10-16T10:35:50;5.73;;;1.20;;
74624;SDS011;63131;52.298;8.056;2022-10-16T10:38:29;5.95;;;1.20;;
74624;SDS011;63131;52.298;8.056;2022-10-16T10:45:53;3.70;;;1.13;;
74624;SDS011;63131;52.298;8.056;2022-10-16T10:48:23;4.90;;;1.92;;
74624;SDS011;63131;52.298;8.056;2022-10-16T10:50:52;4.63;;;1.20;;
74624;SDS011;63131;52.298;8.056;2022-10-16T10:53:29;4.07;;;1.10;;
74624;SDS011;63131;52.298;8.056;2022-10-16T10:58:34;4.47;;;1.20;;
74624;SDS011;63131;52.298;8.056;2022-10-16T11:06:04;5.15;;;1.35;;
74624;SDS011;63131;52.298;8.056;2022-10-16T11:08:33;4.22;;;1.33;;
74624;SDS011;63131;52.298;8.056;2022-10-16T11:11:01;4.75;;;1.20;;
74624;SDS011;63131;52.298;8.056;2022-10-16T11:15:57;6.45;;;1.38;;
74624;SDS011;63131;52.298;8.056;2022-10-16T11:18:24;2.83;;;1.05;;
74624;SDS011;63131;52.298;8.056;2022-10-16T11:20:53;6.25;;;1.25;;
74624;SDS011;63131;52.298;8.056;2022-10-16T11:23:26;3.88;;;1.23;;
74624;SDS011;63131;52.298;8.056;2022-10-16T11:25:54;5.72;;;1.40;;
74624;SDS011;63131;52.298;8.056;2022-10-16T11:28:29;7.70;;;1.33;;
74624;SDS011;63131;52.298;8.056;2022-10-16T11:31:05;4.85;;;1.30;;
74624;SDS011;63131;52.298;8.056;2022-10-16T11:41:26;5.38;;;1.67;;
74624;SDS011;63131;52.298;8.056;2022-10-16T11:43:55;4.40;;;1.30;;
74624;SDS011;63131;52.298;8.056;2022-10-16T11:46:23;5.75;;;1.30;;
74624;SDS011;63131;52.298;8.056;2022-10-16T11:52:03;5.90;;;1.58;;
74624;SDS011;63131;52.298;8.056;2022-10-16T11:54:40;5.72;;;1.40;;
74624;SDS011;63131;52.298;8.056;2022-10-16T11:57:10;6.28;;;1.40;;
74624;SDS011;63131;52.298;8.056;2022-10-16T12:04:42;8.57;;;1.92;;
74624;SDS011;63131;52.298;8.056;2022-10-16T12:07:24;6.55;;;1.90;;
74624;SDS011;63131;52.298;8.056;2022-10-16T12:09:49;5.43;;;1.58;;
74624;SDS011;63131;52.298;8.056;2022-10-16T12:15:03;7.03;;;1.80;;
74624;SDS011;63131;52.298;8.056;2022-10-16T12:17:36;5.82;;;1.60;;
74624;SDS011;63131;52.298;8.056;2022-10-16T12:20:24;6.93;;;1.67;;
74624;SDS011;63131;52.298;8.056;2022-10-16T12:22:55;7.20;;;1.83;;
74624;SDS011;63131;52.298;8.056;2022-10-16T12:27:52;8.65;;;1.92;;
74624;SDS011;63131;52.298;8.056;2022-10-16T12:30:20;6.00;;;1.50;;
74624;SDS011;63131;52.298;8.056;2022-10-16T12:32:46;7.32;;;2.05;;
74624;SDS011;63131;52.298;8.056;2022-10-16T12:35:19;8.25;;;1.80;;
74624;SDS011;63131;52.298;8.056;2022-10-16T12:37:45;6.72;;;1.58;;
74624;SDS011;63131;52.298;8.056;2022-10-16T12:40:11;8.07;;;1.70;;
74624;SDS011;63131;52.298;8.056;2022-10-16T12:42:37;8.38;;;2.63;;
74624;SDS011;63131;52.298;8.056;2022-10-16T12:45:21;4.97;;;1.40;;
74624;SDS011;63131;52.298;8.056;2022-10-16T12:47:48;6.78;;;2.10;;
74624;SDS011;63131;52.298;8.056;2022-10-16T12:52:48;6.07;;;1.75;;
74624;SDS011;63131;52.298;8.056;2022-10-16T12:55:17;6.72;;;2.08;;
74624;SDS011;63131;52.298;8.056;2022-10-16T13:00:28;8.13;;;1.77;;
74624;SDS011;63131;52.298;8.056;2022-10-16T13:05:43;5.35;;;1.70;;
74624;SDS011;63131;52.298;8.056;2022-10-16T13:13:27;6.47;;;1.35;;
74624;SDS011;63131;52.298;8.056;2022-10-16T13:18:47;5.85;;;1.70;;
74624;SDS011;63131;52.298;8.056;2022-10-16T13:21:22;7.97;;;1.40;;
74624;SDS011;63131;52.298;8.056;2022-10-16T13:26:23;5.72;;;1.90;;
74624;SDS011;63131;52.298;8.056;2022-10-16T13:28:51;6.80;;;1.67;;
74624;SDS011;63131;52.298;8.056;2022-10-16T13:31:20;6.73;;;1.20;;
74624;SDS011;63131;52.298;8.056;2022-10-16T13:33:47;6.45;;;1.40;;
74624;SDS011;63131;52.298;8.056;2022-10-16T13:36:23;6.53;;;1.20;;
74624;SDS011;63131;52.298;8.056;2022-10-16T13:38:57;6.18;;;1.23;;
74624;SDS011;63131;52.298;8.056;2022-10-16T13:41:25;4.10;;;1.02;;
74624;SDS011;63131;52.298;8.056;2022-10-16T13:43:50;4.30;;;1.57;;
74624;SDS011;63131;52.298;8.056;2022-10-16T13:46:17;5.53;;;1.30;;
74624;SDS011;63131;52.298;8.056;2022-10-16T13:48:42;4.93;;;1.08;;
74624;SDS011;63131;52.298;8.056;2022-10-16T13:51:15;6.68;;;1.52;;
74624;SDS011;63131;52.298;8.056;2022-10-16T13:53:40;5.97;;;1.30;;
74624;SDS011;63131;52.298;8.056;2022-10-16T13:56:07;6.47;;;1.20;;
74624;SDS011;63131;52.298;8.056;2022-10-16T13:58:34;3.45;;;1.08;;
74624;SDS011;63131;52.298;8.056;2022-10-16T14:01:01;7.10;;;1.37;;
74624;SDS011;63131;52.298;8.056;2022-10-16T14:03:27;5.18;;;1.48;;
74624;SDS011;63131;52.298;8.056;2022-10-16T14:05:57;4.88;;;0.98;;
74624;SDS011;63131;52.298;8.056;2022-10-16T14:08:24;4.35;;;1.20;;
74624;SDS011;63131;52.298;8.056;2022-10-16T14:10:51;6.07;;;1.25;;
74624;SDS011;63131;52.298;8.056;2022-10-16T14:13:19;6.15;;;1.30;;
74624;SDS011;63131;52.298;8.056;2022-10-16T14:15:47;7.40;;;1.48;;
74624;SDS011;63131;52.298;8.056;2022-10-16T14:18:18;6.20;;;1.48;;
74624;SDS011;63131;52.298;8.056;2022-10-16T14:20:45;4.40;;;1.45;;
74624;SDS011;63131;52.298;8.056;2022-10-16T14:23:20;4.28;;;1.10;;
74624;SDS011;63131;52.298;8.056;2022-10-16T14:25:46;5.50;;;1.25;;
74624;SDS011;63131;52.298;8.056;2022-10-16T14:30:48;3.58;;;1.00;;
74624;SDS011;63131;52.298;8.056;2022-10-16T14:33:21;5.35;;;1.30;;
74624;SDS011;63131;52.298;8.056;2022-10-16T14:35:56;3.88;;;1.13;;
74624;SDS011;63131;52.298;8.056;2022-10-16T14:38:24;7.47;;;2.17;;
74624;SDS011;63131;52.298;8.056;2022-10-16T14:40:49;4.50;;;1.20;;
74624;SDS011;63131;52.298;8.056;2022-10-16T14:43:20;4.35;;;1.40;;
74624;SDS011;63131;52.298;8.056;2022-10-16T14:45:49;4.13;;;1.20;;
74624;SDS011;63131;52.298;8.056;2022-10-16T14:48:16;6.00;;;1.10;;
74624;SDS011;63131;52.298;8.056;2022-10-16T14:50:42;3.75;;;0.88;;
74624;SDS011;63131;52.298;8.056;2022-10-16T14:53:09;5.43;;;1.27;;
74624;SDS011;63131;52.298;8.056;2022-10-16T14:55:36;5.53;;;1.02;;
74624;SDS011;63131;52.298;8.056;2022-10-16T14:58:01;7.20;;;1.50;;
74624;SDS011;63131;52.298;8.056;2022-10-16T15:00:27;4.00;;;1.13;;
74624;SDS011;63131;52.298;8.056;2022-10-16T15:02:52;7.60;;;1.45;;
74624;SDS011;63131;52.298;8.056;2022-10-16T15:05:21;8.53;;;1.90;;
74624;SDS011;63131;52.298;8.056;2022-10-16T15:07:47;7.07;;;1.33;;
74624;SDS011;63131;52.298;8.056;2022-10-16T15:10:14;7.35;;;1.30;;
74624;SDS011;63131;52.298;8.056;2022-10-16T15:12:39;4.40;;;1.02;;
74624;SDS011;63131;52.298;8.056;2022-10-16T15:17:52;4.60;;;1.30;;
74624;SDS011;63131;52.298;8.056;2022-10-16T15:20:18;6.72;;;1.20;;
74624;SDS011;63131;52.298;8.056;2022-10-16T15:22:44;5.22;;;1.10;;
74624;SDS011;63131;52.298;8.056;2022-10-16T15:27:54;6.38;;;1.30;;
74624;SDS011;63131;52.298;8.056;2022-10-16T15:30:20;3.33;;;1.03;;
74624;SDS011;63131;52.298;8.056;2022-10-16T15:32:45;4.40;;;1.17;;
74624;SDS011;63131;52.298;8.056;2022-10-16T15:35:10;6.20;;;1.30;;
74624;SDS011;63131;52.298;8.056;2022-10-16T15:37:35;4.60;;;1.10;;
74624;SDS011;63131;52.298;8.056;2022-10-16T15:40:00;5.40;;;2.10;;
74624;SDS011;63131;52.298;8.056;2022-10-16T15:42:25;7.63;;;2.20;;
74624;SDS011;63131;52.298;8.056;2022-10-16T15:44:51;8.63;;;2.03;;
74624;SDS011;63131;52.298;8.056;2022-10-16T15:47:16;4.90;;;1.30;;
74624;SDS011;63131;52.298;8.056;2022-10-16T15:49:41;4.37;;;1.27;;
74624;SDS011;63131;52.298;8.056;2022-10-16T15:52:06;5.57;;;1.50;;
74624;SDS011;63131;52.298;8.056;2022-10-16T15:54:31;7.60;;;1.60;;
74624;SDS011;63131;52.298;8.056;2022-10-16T15:56:57;7.90;;;1.73;;
74624;SDS011;63131;52.298;8.056;2022-10-16T15:59:22;5.70;;;1.63;;
74624;SDS011;63131;52.298;8.056;2022-10-16T16:01:47;8.77;;;1.97;;
74624;SDS011;63131;52.298;8.056;2022-10-16T16:04:12;5.20;;;1.50;;
74624;SDS011;63131;52.298;8.056;2022-10-16T16:06:37;7.73;;;1.73;;
74624;SDS011;63131;52.298;8.056;2022-10-16T16:09:04;8.40;;;1.77;;
74624;SDS011;63131;52.298;8.056;2022-10-16T16:11:30;5.43;;;1.57;;
74624;SDS011;63131;52.298;8.056;2022-10-16T16:13:56;7.25;;;1.88;;
74624;SDS011;63131;52.298;8.056;2022-10-16T16:16:22;7.87;;;2.43;;
74624;SDS011;63131;52.298;8.056;2022-10-16T16:18:47;9.37;;;3.50;;
74624;SDS011;63131;52.298;8.056;2022-10-16T16:21:14;9.10;;;2.42;;
74624;SDS011;63131;52.298;8.056;2022-10-16T16:23:39;8.03;;;2.40;;
74624;SDS011;63131;52.298;8.056;2022-10-16T16:26:14;7.57;;;2.43;;
74624;SDS011;63131;52.298;8.056;2022-10-16T16:28:40;8.27;;;2.30;;
74624;SDS011;63131;52.298;8.056;2022-10-16T16:31:06;8.02;;;2.50;;
74624;SDS011;63131;52.298;8.056;2022-10-16T16:33:31;9.32;;;2.70;;
74624;SDS011;63131;52.298;8.056;2022-10-16T16:35:58;7.82;;;2.13;;
74624;SDS011;63131;52.298;8.056;2022-10-16T16:38:23;8.80;;;2.45;;
74624;SDS011;63131;52.298;8.056;2022-10-16T16:40:48;8.00;;;2.37;;
74624;SDS011;63131;52.298;8.056;2022-10-16T16:43:13;8.30;;;1.90;;
74624;SDS011;63131;52.298;8.056;2022-10-16T16:45:38;5.90;;;2.03;;
74624;SDS011;63131;52.298;8.056;2022-10-16T16:48:04;9.50;;;2.23;;
74624;SDS011;63131;52.298;8.056;2022-10-16T16:50:34;8.68;;;2.10;;
74624;SDS011;63131;52.298;8.056;2022-10-16T16:52:59;11.55;;;2.83;;
74624;SDS011;63131;52.298;8.056;2022-10-16T16:55:24;8.70;;;2.72;;
74624;SDS011;63131;52.298;8.056;2022-10-16T16:57:50;7.87;;;2.37;;
74624;SDS011;63131;52.298;8.056;2022-10-16T17:00:15;9.20;;;2.80;;
74624;SDS011;63131;52.298;8.056;2022-10-16T17:02:40;7.73;;;2.60;;
74624;SDS011;63131;52.298;8.056;2022-10-16T17:05:08;9.90;;;2.78;;
74624;SDS011;63131;52.298;8.056;2022-10-16T17:07:33;8.63;;;2.88;;
74624;SDS011;63131;52.298;8.056;2022-10-16T17:09:59;9.07;;;2.85;;
74624;SDS011;63131;52.298;8.056;2022-10-16T17:12:25;10.45;;;3.72;;
74624;SDS011;63131;52.298;8.056;2022-10-16T17:17:15;9.52;;;2.95;;
74624;SDS011;63131;52.298;8.056;2022-10-16T17:19:40;9.30;;;3.50;;
74624;SDS011;63131;52.298;8.056;2022-10-16T17:22:05;7.88;;;2.80;;
74624;SDS011;63131;52.298;8.056;2022-10-16T17:26:56;8.38;;;3.25;;
74624;SDS011;63131;52.298;8.056;2022-10-16T17:29:22;7.95;;;3.33;;
74624;SDS011;63131;52.298;8.056;2022-10-16T17:31:47;9.03;;;3.50;;
74624;SDS011;63131;52.298;8.056;2022-10-16T17:34:14;8.45;;;3.28;;
74624;SDS011;63131;52.298;8.056;2022-10-16T17:36:39;8.90;;;3.95;;
74624;SDS011;63131;52.298;8.056;2022-10-16T17:39:10;8.23;;;3.85;;
74624;SDS011;63131;52.298;8.056;2022-10-16T17:41:35;9.52;;;3.97;;
74624;SDS011;63131;52.298;8.056;2022-10-16T17:44:01;10.60;;;4.40;;
74624;SDS011;63131;52.298;8.056;2022-10-16T17:46:26;9.85;;;4.38;;
74624;SDS011;63131;52.298;8.056;2022-10-16T17:48:52;12.30;;;4.20;;
74624;SDS011;63131;52.298;8.056;2022-10-16T17:51:25;11.95;;;4.80;;
74624;SDS011;63131;52.298;8.056;2022-10-16T17:53:52;11.35;;;4.88;;
74624;SDS011;63131;52.298;8.056;2022-10-16T17:56:18;10.43;;;4.18;;
74624;SDS011;63131;52.298;8.056;2022-10-16T17:58:46;9.07;;;3.40;;
74624;SDS011;63131;52.298;8.056;2022-10-16T18:01:16;10.48;;;3.45;;
74624;SDS011;63131;52.298;8.056;2022-10-16T18:03:42;9.75;;;3.95;;
74624;SDS011;63131;52.298;8.056;2022-10-16T18:06:07;10.30;;;4.40;;
74624;SDS011;63131;52.298;8.056;2022-10-16T18:08:32;10.87;;;4.30;;
74624;SDS011;63131;52.298;8.056;2022-10-16T18:11:02;11.30;;;4.45;;
74624;SDS011;63131;52.298;8.056;2022-10-16T18:13:28;11.55;;;5.53;;
74624;SDS011;63131;52.298;8.056;2022-10-16T18:16:00;11.83;;;4.57;;
74624;SDS011;63131;52.298;8.056;2022-10-16T18:18:25;10.20;;;5.30;;
74624;SDS011;63131;52.298;8.056;2022-10-16T18:20:57;11.50;;;4.67;;
74624;SDS011;63131;52.298;8.056;2022-10-16T18:23:23;8.80;;;4.97;;
74624;SDS011;63131;52.298;8.056;2022-10-16T18:28:13;10.07;;;4.72;;
74624;SDS011;63131;52.298;8.056;2022-10-16T18:33:04;10.65;;;4.28;;
74624;SDS011;63131;52.298;8.056;2022-10-16T18:37:54;11.95;;;5.00;;
74624;SDS011;63131;52.298;8.056;2022-10-16T18:40:22;11.43;;;5.20;;
74624;SDS011;63131;52.298;8.056;2022-10-16T18:45:14;12.18;;;5.85;;
74624;SDS011;63131;52.298;8.056;2022-10-16T18:47:39;13.47;;;5.73;;
74624;SDS011;63131;52.298;8.056;2022-10-16T18:50:04;11.80;;;5.80;;
74624;SDS011;63131;52.298;8.056;2022-10-16T18:52:30;11.80;;;6.20;;
74624;SDS011;63131;52.298;8.056;2022-10-16T18:54:56;11.95;;;5.97;;
74624;SDS011;63131;52.298;8.056;2022-10-16T18:57:21;13.45;;;5.90;;
74624;SDS011;63131;52.298;8.056;2022-10-16T19:02:12;12.45;;;5.82;;
74624;SDS011;63131;52.298;8.056;2022-10-16T19:07:02;11.07;;;5.88;;
74624;SDS011;63131;52.298;8.056;2022-10-16T19:11:52;11.23;;;5.28;;